Time;durP1;ratioP1;P1;durP2;ratioP2;P2;SDS_P1;SDS_P2;PMS_P1;PMS_P2;Temp;Humidity;BMP_temperature;BMP_pressure;BME280_temperature;BME280_humidity;BME280_pressure;Samples;Min_cycle;Max_cycle;Signal;HPM_P1;HPM_P2
2022/05/19 00:01:24;;;;;;;37.22;27.95;;;14.40;99.90;;;;;;5074101;28;20045;-75
2022/05/19 00:03:49;;;;;;;40.78;29.67;;;14.40;99.90;;;;;;5074093;28;20055;-75
2022/05/19 00:06:16;;;;;;;41.38;32.60;;;14.40;99.90;;;;;;5056526;28;20119;-76
2022/05/19 00:08:42;;;;;;;50.28;34.47;;;14.40;99.90;;;;;;5056916;28;20103;-75
2022/05/19 00:11:12;;;;;;;33.78;27.27;;;14.50;99.90;;;;;;5073789;28;20130;-75
2022/05/19 00:13:39;;;;;;;33.78;25.85;;;14.50;99.90;;;;;;5074172;28;20132;-76
2022/05/19 00:16:05;;;;;;;38.63;27.38;;;14.50;99.90;;;;;;5073861;28;20418;-75
2022/05/19 00:18:32;;;;;;;29.15;24.65;;;14.50;99.90;;;;;;5056450;28;20064;-74
2022/05/19 00:20:58;;;;;;;41.75;27.58;;;14.60;99.90;;;;;;5073607;28;20044;-75
2022/05/19 00:23:23;;;;;;;34.90;24.20;;;14.60;99.90;;;;;;5056246;28;20055;-74
2022/05/19 00:25:49;;;;;;;31.35;27.15;;;14.70;99.90;;;;;;5056385;28;20048;-75
2022/05/19 00:28:15;;;;;;;35.75;27.10;;;14.80;99.90;;;;;;5073683;28;20082;-76
2022/05/19 00:30:41;;;;;;;31.67;24.98;;;14.80;99.90;;;;;;5073606;28;20048;-73
2022/05/19 00:33:08;;;;;;;37.55;28.33;;;14.90;99.90;;;;;;5056308;28;20040;-75
2022/05/19 00:35:36;;;;;;;31.13;24.55;;;14.90;99.90;;;;;;5073317;28;20135;-77
2022/05/19 00:38:02;;;;;;;29.95;24.35;;;14.90;99.90;;;;;;5073965;28;20044;-75
2022/05/19 00:40:28;;;;;;;28.52;23.33;;;14.90;99.90;;;;;;5073430;28;20040;-75
2022/05/19 00:42:54;;;;;;;29.58;23.90;;;15.00;99.90;;;;;;5056229;28;20052;-75
2022/05/19 00:45:33;;;;;;;31.45;25.15;;;15.00;99.90;;;;;;5055876;28;20044;-74
2022/05/19 00:48:13;;;;;;;31.50;23.83;;;15.00;99.90;;;;;;5073156;28;20040;-76
2022/05/19 00:50:38;;;;;;;27.35;22.65;;;15.00;99.90;;;;;;5055948;28;20507;-74
2022/05/19 00:53:35;;;;;;;34.85;25.75;;;15.10;99.90;;;;;;5073158;28;20127;-75
2022/05/19 00:56:08;;;;;;;38.63;27.63;;;15.00;99.90;;;;;;5044679;28;20101;-76
2022/05/19 00:58:40;;;;;;;35.72;26.17;;;15.00;99.90;;;;;;5072991;28;20054;-77
2022/05/19 01:01:06;;;;;;;33.05;25.85;;;15.00;99.90;;;;;;5073018;28;20048;-75
2022/05/19 01:03:48;;;;;;;34.33;24.48;;;15.00;99.90;;;;;;5072936;28;20099;-74
2022/05/19 01:06:20;;;;;;;30.30;23.67;;;15.00;99.90;;;;;;5072875;28;20350;-75
2022/05/19 01:08:52;;;;;;;38.72;25.17;;;15.00;99.90;;;;;;5072636;28;20055;-75
2022/05/19 01:11:18;;;;;;;27.42;24.02;;;15.00;99.90;;;;;;5055528;28;20413;-75
2022/05/19 01:13:45;;;;;;;27.05;23.10;;;15.00;99.90;;;;;;5055514;28;20051;-76
2022/05/19 01:16:11;;;;;;;32.65;25.35;;;15.00;99.90;;;;;;5055458;28;20040;-75
2022/05/19 01:18:38;;;;;;;32.45;24.45;;;15.00;99.90;;;;;;5055322;28;20048;-76
2022/05/19 01:21:07;;;;;;;28.88;22.13;;;14.90;99.90;;;;;;5072528;28;20045;-74
2022/05/19 01:23:38;;;;;;;27.00;24.07;;;14.90;99.90;;;;;;5070745;28;20347;-75
2022/05/19 01:26:32;;;;;;;37.50;27.17;;;14.90;99.90;;;;;;5054973;28;20045;-75
2022/05/19 01:28:59;;;;;;;32.45;26.35;;;15.00;99.90;;;;;;5072276;28;20051;-76
2022/05/19 01:31:34;;;;;;;33.03;24.67;;;15.00;99.90;;;;;;5072280;28;20044;-74
2022/05/19 01:34:02;;;;;;;34.28;26.92;;;15.00;99.90;;;;;;5055129;28;20055;-75
2022/05/19 01:36:28;;;;;;;38.45;27.88;;;15.00;99.90;;;;;;5072395;28;20048;-76
2022/05/19 01:39:13;;;;;;;37.85;29.63;;;15.00;99.90;;;;;;5072491;28;20151;-75
2022/05/19 01:41:51;;;;;;;33.72;27.63;;;15.00;99.90;;;;;;5072062;28;20032;-75
2022/05/19 01:44:57;;;;;;;38.42;28.77;;;15.00;99.90;;;;;;5054719;28;20044;-74
2022/05/19 01:47:39;;;;;;;40.58;29.38;;;14.90;99.90;;;;;;5072213;28;20369;-76
2022/05/19 01:50:19;;;;;;;34.92;29.33;;;14.90;99.90;;;;;;5072181;28;20056;-76
2022/05/19 01:52:50;;;;;;;;;;;14.90;99.90;;;;;;5072876;28;20040;-75
2022/05/19 01:55:21;;;;;;;;;;;14.90;99.90;;;;;;5072412;28;19964;-74
2022/05/19 01:57:55;;;;;;;37.63;28.33;;;14.80;99.90;;;;;;5072034;28;19917;-76
2022/05/19 02:00:24;;;;;;;36.05;28.13;;;14.80;99.90;;;;;;5072090;28;20040;-76
2022/05/19 02:03:08;;;;;;;37.92;29.60;;;14.90;99.90;;;;;;5054606;28;20473;-74
2022/05/19 02:05:54;;;;;;;37.78;30.77;;;14.90;99.90;;;;;;5054778;28;20128;-75
2022/05/19 02:08:28;;;;;;;34.47;27.38;;;14.90;99.90;;;;;;5065345;28;20456;-74
2022/05/19 02:10:57;;;;;;;36.92;28.10;;;14.90;99.90;;;;;;5054511;28;20047;-76
2022/05/19 02:13:24;;;;;;;34.63;27.60;;;14.90;99.90;;;;;;5071859;28;20118;-74
2022/05/19 02:15:52;;;;;;;34.70;28.13;;;14.90;99.90;;;;;;5072032;28;20036;-74
2022/05/19 02:18:21;;;;;;;33.38;26.20;;;15.00;99.90;;;;;;5054575;28;20450;-75
2022/05/19 02:20:49;;;;;;;33.50;25.90;;;15.00;99.90;;;;;;5071867;28;20048;-75
2022/05/19 02:23:16;;;;;;;34.40;27.33;;;15.10;99.90;;;;;;5054200;28;20105;-74
2022/05/19 02:25:45;;;;;;;34.83;25.65;;;15.10;99.90;;;;;;5054200;28;20045;-75
2022/05/19 02:28:20;;;;;;;35.28;26.52;;;15.10;99.90;;;;;;5054272;28;20048;-75
2022/05/19 02:30:46;;;;;;;33.80;27.35;;;15.10;99.90;;;;;;5071841;28;20044;-75
2022/05/19 02:33:13;;;;;;;32.80;28.40;;;15.20;99.90;;;;;;5072781;28;20349;-74
2022/05/19 02:35:40;;;;;;;34.90;27.45;;;15.20;99.90;;;;;;5075727;28;20040;-76
2022/05/19 02:38:06;;;;;;;35.75;28.60;;;15.20;99.90;;;;;;5075846;28;20056;-75
2022/05/19 02:40:34;;;;;;;38.78;30.05;;;15.20;99.90;;;;;;5058322;28;20423;-75
2022/05/19 02:43:01;;;;;;;35.28;28.48;;;15.20;99.90;;;;;;5075619;28;20465;-75
2022/05/19 02:45:28;;;;;;;42.63;30.10;;;15.20;99.90;;;;;;5058218;28;20091;-75
2022/05/19 02:47:54;;;;;;;40.50;30.13;;;15.20;99.90;;;;;;5075586;28;20097;-76
2022/05/19 02:50:21;;;;;;;35.97;29.50;;;15.20;99.90;;;;;;5058328;28;20405;-75
2022/05/19 02:52:48;;;;;;;40.60;32.67;;;15.30;99.90;;;;;;5075395;28;20051;-74
2022/05/19 02:55:14;;;;;;;41.20;31.60;;;15.30;99.90;;;;;;5075175;28;20047;-75
2022/05/19 02:57:41;;;;;;;40.60;31.52;;;15.30;99.90;;;;;;5075724;28;20357;-74
2022/05/19 03:00:13;;;;;;;39.17;30.88;;;15.20;99.90;;;;;;5075418;28;20048;-74
2022/05/19 03:02:40;;;;;;;39.30;32.65;;;15.20;99.90;;;;;;5075298;28;20040;-75
2022/05/19 03:05:09;;;;;;;43.53;32.83;;;15.20;99.90;;;;;;5075191;28;20052;-74
2022/05/19 03:07:35;;;;;;;43.30;33.63;;;15.20;99.90;;;;;;5075512;28;20059;-74
2022/05/19 03:10:02;;;;;;;39.72;32.45;;;15.30;99.90;;;;;;5075240;28;20122;-75
2022/05/19 03:12:28;;;;;;;45.78;33.72;;;15.30;99.90;;;;;;5057825;28;20047;-76
2022/05/19 03:14:54;;;;;;;43.45;32.33;;;15.30;99.90;;;;;;5057681;28;20049;-76
2022/05/19 03:17:21;;;;;;;45.50;33.92;;;15.30;99.90;;;;;;5075029;28;20036;-76
2022/05/19 03:19:47;;;;;;;41.20;31.75;;;15.30;99.90;;;;;;5075018;28;20076;-75
2022/05/19 03:22:12;;;;;;;43.88;33.65;;;15.30;99.90;;;;;;5075284;28;20445;-75
2022/05/19 03:24:38;;;;;;;42.95;31.17;;;15.40;99.90;;;;;;5074615;28;20096;-74
2022/05/19 03:27:05;;;;;;;41.83;33.58;;;15.40;99.90;;;;;;5075015;28;20052;-74
2022/05/19 03:29:31;;;;;;;37.30;30.40;;;15.40;99.90;;;;;;5057394;28;20036;-76
2022/05/19 03:31:59;;;;;;;43.97;32.72;;;15.40;99.90;;;;;;5057508;28;20340;-75
2022/05/19 03:34:25;;;;;;;43.33;32.58;;;15.40;99.90;;;;;;5057172;28;20040;-74
2022/05/19 03:36:51;;;;;;;41.13;32.65;;;15.40;99.90;;;;;;5074601;28;20343;-76
2022/05/19 03:39:18;;;;;;;42.78;32.67;;;15.40;99.90;;;;;;5074779;28;20049;-76
2022/05/19 03:41:44;;;;;;;38.97;31.80;;;15.50;99.90;;;;;;5040466;28;20097;-74
2022/05/19 03:44:10;;;;;;;43.78;31.05;;;15.60;99.90;;;;;;5057114;28;20041;-75
2022/05/19 03:46:36;;;;;;;39.38;32.20;;;15.60;99.90;;;;;;5074005;28;20040;-75
2022/05/19 03:49:03;;;;;;;42.08;33.13;;;15.60;99.90;;;;;;5074498;28;20076;-74
2022/05/19 03:51:32;;;;;;;46.67;35.03;;;15.70;99.90;;;;;;5056981;28;20343;-75
2022/05/19 03:53:59;;;;;;;41.70;34.75;;;15.70;99.90;;;;;;5074626;28;20363;-75
2022/05/19 03:56:26;;;;;;;45.50;35.53;;;15.70;99.90;;;;;;5074434;28;20048;-74
2022/05/19 03:58:52;;;;;;;51.22;35.83;;;15.80;99.90;;;;;;5056990;28;20055;-74
2022/05/19 04:01:20;;;;;;;49.38;36.70;;;15.70;99.90;;;;;;5074262;28;20036;-74
2022/05/19 04:03:46;;;;;;;50.58;38.42;;;15.80;99.90;;;;;;5074024;28;20040;-75
2022/05/19 04:06:13;;;;;;;48.38;38.47;;;15.80;99.90;;;;;;5073936;28;20344;-75
2022/05/19 04:08:38;;;;;;;49.47;37.97;;;15.80;99.90;;;;;;5056766;28;20055;-74
2022/05/19 04:11:05;;;;;;;52.58;38.50;;;15.90;99.90;;;;;;5074169;28;20428;-75
2022/05/19 04:13:31;;;;;;;49.90;38.33;;;15.90;99.90;;;;;;5073935;28;20037;-77
2022/05/19 04:15:57;;;;;;;54.40;37.83;;;16.00;99.90;;;;;;5056405;28;20044;-75
2022/05/19 04:18:23;;;;;;;53.53;39.45;;;16.00;99.90;;;;;;5056593;28;20071;-76
2022/05/19 04:20:48;;;;;;;53.53;38.63;;;16.10;99.90;;;;;;5073810;28;20044;-74
2022/05/19 04:23:16;;;;;;;51.80;39.42;;;16.20;99.90;;;;;;5073557;28;20049;-75
2022/05/19 04:25:42;;;;;;;50.75;40.13;;;16.20;99.90;;;;;;5056667;28;20055;-75
2022/05/19 04:28:09;;;;;;;46.38;35.60;;;16.30;99.90;;;;;;5073789;28;20048;-75
2022/05/19 04:30:34;;;;;;;48.15;35.88;;;16.30;99.90;;;;;;5056484;28;20159;-76
2022/05/19 04:33:00;;;;;;;49.63;36.15;;;16.30;99.90;;;;;;5056131;28;20075;-76
2022/05/19 04:35:26;;;;;;;51.60;37.13;;;16.40;99.90;;;;;;5055804;28;20123;-75
2022/05/19 04:37:55;;;;;;;50.10;37.72;;;16.50;99.90;;;;;;5056056;28;20107;-75
2022/05/19 04:40:21;;;;;;;47.08;37.25;;;16.50;99.90;;;;;;5073573;28;20493;-73
2022/05/19 04:42:46;;;;;;;47.70;38.58;;;16.60;99.90;;;;;;5073505;28;20055;-75
2022/05/19 04:45:15;;;;;;;45.33;35.35;;;16.50;99.90;;;;;;5055921;28;20508;-74
2022/05/19 04:47:41;;;;;;;44.55;35.35;;;16.60;99.90;;;;;;5055971;28;20438;-75
2022/05/19 04:50:07;;;;;;;41.40;31.65;;;16.60;99.90;;;;;;5073074;28;20036;-75
2022/05/19 04:52:33;;;;;;;44.85;34.85;;;16.80;99.90;;;;;;5073376;28;20087;-76
2022/05/19 04:54:59;;;;;;;45.67;35.63;;;16.80;99.90;;;;;;5073005;28;20036;-76
2022/05/19 04:57:25;;;;;;;40.13;33.20;;;16.90;99.90;;;;;;5072235;28;20048;-74
2022/05/19 04:59:51;;;;;;;40.45;32.35;;;17.00;99.90;;;;;;5055646;28;20119;-76
2022/05/19 05:02:17;;;;;;;33.58;29.02;;;17.10;99.90;;;;;;5073022;28;20124;-74
2022/05/19 05:04:43;;;;;;;37.90;30.05;;;17.10;99.90;;;;;;5072911;28;20036;-77
2022/05/19 05:07:09;;;;;;;37.40;29.92;;;17.20;99.90;;;;;;5073055;28;20045;-75
2022/05/19 05:09:34;;;;;;;35.00;28.17;;;17.30;99.90;;;;;;5072929;28;20044;-75
2022/05/19 05:12:01;;;;;;;34.92;29.52;;;17.40;99.90;;;;;;5072984;28;20040;-74
2022/05/19 05:14:26;;;;;;;34.15;28.13;;;17.40;99.90;;;;;;5072565;28;20072;-74
2022/05/19 05:16:53;;;;;;;31.23;25.98;;;17.50;99.90;;;;;;5055378;28;20075;-76
2022/05/19 05:19:22;;;;;;;27.00;22.17;;;17.50;99.90;;;;;;5055259;28;20064;-76
2022/05/19 05:21:54;;;;;;;21.73;18.25;;;17.50;99.90;;;;;;5055428;28;20365;-74
2022/05/19 05:24:19;;;;;;;23.50;15.65;;;17.60;99.90;;;;;;5072350;28;20052;-76
2022/05/19 05:26:45;;;;;;;19.88;14.45;;;17.60;99.90;;;;;;5072446;28;20423;-74
2022/05/19 05:29:11;;;;;;;21.23;14.90;;;17.70;99.90;;;;;;5055228;28;20044;-75
2022/05/19 05:31:37;;;;;;;23.15;15.02;;;17.70;99.90;;;;;;5072396;28;20428;-76
2022/05/19 05:34:03;;;;;;;21.30;15.18;;;17.70;99.90;;;;;;5072747;28;20041;-75
2022/05/19 05:36:28;;;;;;;18.67;15.02;;;17.70;99.90;;;;;;5055221;28;20048;-74
2022/05/19 05:38:54;;;;;;;22.55;14.98;;;17.70;99.90;;;;;;5072378;28;20082;-75
2022/05/19 05:41:20;;;;;;;20.85;17.20;;;17.70;99.90;;;;;;5072481;28;20040;-77
2022/05/19 05:43:46;;;;;;;23.38;16.60;;;17.60;99.90;;;;;;5072251;28;20106;-75
2022/05/19 05:46:14;;;;;;;26.52;17.98;;;17.60;99.90;;;;;;5072013;28;20106;-75
2022/05/19 05:48:41;;;;;;;23.98;18.77;;;17.60;99.90;;;;;;5072084;28;20469;-76
2022/05/19 05:51:08;;;;;;;24.58;18.25;;;17.60;99.90;;;;;;5072418;28;20064;-76
2022/05/19 05:53:36;;;;;;;20.85;15.52;;;17.50;99.90;;;;;;5072303;28;20102;-77
2022/05/19 05:56:03;;;;;;;19.98;13.48;;;17.50;99.90;;;;;;5071920;28;20299;-75
2022/05/19 05:58:30;;;;;;;19.10;12.32;;;17.50;99.90;;;;;;5069147;28;20052;-75
2022/05/19 06:00:55;;;;;;;17.10;10.77;;;17.60;99.90;;;;;;5054562;28;20045;-77
2022/05/19 06:03:21;;;;;;;13.57;8.13;;;17.60;99.90;;;;;;5072380;28;20044;-75
2022/05/19 06:05:47;;;;;;;14.73;6.85;;;17.60;99.90;;;;;;5072535;28;20120;-74
2022/05/19 06:08:13;;;;;;;10.68;4.85;;;17.50;99.90;;;;;;5054491;28;20323;-75
2022/05/19 06:10:39;;;;;;;11.43;5.68;;;17.50;99.90;;;;;;5072005;28;20040;-76
2022/05/19 06:13:06;;;;;;;11.82;4.80;;;17.50;99.90;;;;;;5054611;28;20128;-75
2022/05/19 06:15:31;;;;;;;10.65;5.15;;;17.50;99.90;;;;;;5054333;28;20044;-76
2022/05/19 06:17:58;;;;;;;15.32;5.50;;;17.40;99.90;;;;;;5076131;28;20056;-77
2022/05/19 06:20:24;;;;;;;10.10;5.75;;;17.50;99.90;;;;;;5075653;28;20052;-74
2022/05/19 06:22:50;;;;;;;10.40;7.00;;;17.50;99.90;;;;;;5058367;28;20072;-75
2022/05/19 06:25:19;;;;;;;12.68;8.45;;;17.50;99.90;;;;;;5075045;28;20373;-74
2022/05/19 06:27:45;;;;;;;21.17;14.50;;;17.50;99.90;;;;;;5075760;28;20517;-74
2022/05/19 06:30:12;;;;;;;18.13;12.93;;;17.60;99.90;;;;;;5075598;28;20037;-76
2022/05/19 06:32:40;;;;;;;32.97;20.27;;;17.60;99.90;;;;;;5075673;28;20414;-75
2022/05/19 06:35:07;;;;;;;28.33;24.00;;;17.70;99.90;;;;;;5058333;28;20052;-75
2022/05/19 06:37:34;;;;;;;32.88;27.00;;;17.80;99.90;;;;;;5075763;28;20097;-75
2022/05/19 06:40:00;;;;;;;33.35;26.20;;;17.90;99.90;;;;;;5075595;28;20040;-75
2022/05/19 06:42:27;;;;;;;40.88;31.08;;;17.90;99.90;;;;;;5075696;28;20385;-76
2022/05/19 06:44:52;;;;;;;38.08;28.63;;;18.00;99.90;;;;;;5076074;28;20106;-77
2022/05/19 06:47:18;;;;;;;30.52;25.77;;;18.00;99.90;;;;;;5075744;28;20044;-76
2022/05/19 06:49:51;;;;;;;34.90;27.00;;;18.00;99.90;;;;;;5075757;28;20044;-75
2022/05/19 06:52:22;;;;;;;28.75;22.38;;;18.00;99.90;;;;;;5076015;28;20056;-76
2022/05/19 06:54:53;;;;;;;15.82;13.13;;;18.10;99.90;;;;;;5057856;28;20040;-75
2022/05/19 06:57:21;;;;;;;15.50;11.57;;;18.10;99.90;;;;;;5057820;28;20091;-76
2022/05/19 06:59:49;;;;;;;15.18;11.63;;;18.10;99.90;;;;;;5075302;28;20052;-75
2022/05/19 07:02:16;;;;;;;12.65;8.90;;;18.20;99.90;;;;;;5058063;28;20117;-76
2022/05/19 07:04:43;;;;;;;12.93;9.35;;;18.20;99.90;;;;;;5058224;28;20106;-76
2022/05/19 07:07:10;;;;;;;11.88;7.50;;;18.20;99.90;;;;;;5075455;28;20048;-77
2022/05/19 07:09:37;;;;;;;11.00;8.18;;;18.30;99.90;;;;;;5075162;28;20480;-77
2022/05/19 07:12:04;;;;;;;12.27;8.32;;;18.30;99.90;;;;;;5075077;28;20040;-77
2022/05/19 07:14:32;;;;;;;11.50;8.10;;;18.30;99.90;;;;;;5056163;28;20070;-76
2022/05/19 07:16:58;;;;;;;13.25;9.15;;;18.40;99.90;;;;;;5073602;28;20105;-78
2022/05/19 07:22:19;;;;;;;12.90;7.82;;;18.50;99.90;;;;;;5068617;28;20357;-79
2022/05/19 07:24:46;;;;;;;10.65;6.78;;;18.50;99.90;;;;;;5074767;28;20206;-79
2022/05/19 07:27:12;;;;;;;10.30;7.03;;;18.60;99.90;;;;;;5077410;28;20048;-77
2022/05/19 07:29:39;;;;;;;10.75;6.90;;;18.70;99.90;;;;;;5077696;28;20036;-78
2022/05/19 07:32:08;;;;;;;11.00;7.38;;;18.80;99.90;;;;;;5059285;28;20048;-79
2022/05/19 07:34:39;;;;;;;8.38;7.20;;;18.90;99.90;;;;;;5058214;28;20047;-77
2022/05/19 07:37:06;;;;;;;11.52;7.95;;;19.00;99.90;;;;;;5072732;28;20055;-76
2022/05/19 07:39:33;;;;;;;14.32;7.25;;;19.10;99.90;;;;;;5059676;28;20037;-76
2022/05/19 07:41:59;;;;;;;13.85;8.23;;;19.10;99.90;;;;;;5057502;28;20044;-76
2022/05/19 07:44:27;;;;;;;12.63;7.90;;;19.20;99.90;;;;;;5074871;28;20343;-76
2022/05/19 07:46:55;;;;;;;13.10;8.52;;;19.20;99.90;;;;;;5057094;28;20044;-77
2022/05/19 07:49:21;;;;;;;12.68;9.05;;;19.20;99.90;;;;;;5073978;28;20335;-77
2022/05/19 07:51:47;;;;;;;9.55;7.50;;;19.20;99.90;;;;;;5074385;28;20417;-77
2022/05/19 07:54:19;;;;;;;13.25;8.40;;;19.20;99.90;;;;;;5074670;28;20044;-77
2022/05/19 07:56:47;;;;;;;10.52;8.23;;;19.20;99.90;;;;;;5074228;28;20072;-78
2022/05/19 07:59:14;;;;;;;15.85;9.55;;;19.20;99.90;;;;;;5074708;28;20052;-78
2022/05/19 08:01:42;;;;;;;13.43;9.00;;;19.20;99.90;;;;;;5056697;28;20052;-77
2022/05/19 08:04:09;;;;;;;14.00;9.45;;;19.20;99.90;;;;;;5057043;28;20037;-79
2022/05/19 08:06:38;;;;;;;13.77;9.90;;;19.30;99.90;;;;;;5074560;28;20609;-77
2022/05/19 08:11:51;;;;;;;15.23;10.10;;;19.30;99.90;;;;;;5056870;28;20051;-77
2022/05/19 08:17:08;;;;;;;13.43;10.75;;;19.50;99.90;;;;;;5074104;28;20055;-77
2022/05/19 08:19:34;;;;;;;;;;;19.50;99.90;;;;;;5068129;28;20115;-77
2022/05/19 08:22:00;;;;;;;12.93;9.57;;;19.60;99.90;;;;;;5074335;28;19924;-78
2022/05/19 08:24:26;;;;;;;13.85;11.00;;;19.70;99.90;;;;;;5056371;28;20446;-77
2022/05/19 08:26:53;;;;;;;14.13;10.48;;;19.80;99.90;;;;;;5074189;28;20054;-77
2022/05/19 08:29:19;;;;;;;14.35;10.95;;;20.00;99.90;;;;;;5056568;28;20120;-77
2022/05/19 08:31:46;;;;;;;17.15;12.30;;;20.10;99.90;;;;;;5060386;28;20036;-77
2022/05/19 08:34:13;;;;;;;16.83;11.98;;;20.30;99.90;;;;;;5056285;28;20128;-77
2022/05/19 08:36:44;;;;;;;13.13;11.27;;;20.40;99.90;;;;;;5078354;28;20315;-76
2022/05/19 08:39:13;;;;;;;16.15;12.20;;;20.60;99.90;;;;;;5074278;28;20224;-76
2022/05/19 08:41:49;;;;;;;13.07;11.27;;;20.70;99.90;;;;;;5073801;28;20048;-78
2022/05/19 08:44:26;;;;;;;12.20;10.82;;;20.80;99.90;;;;;;5073624;28;20400;-77
2022/05/19 08:46:57;;;;;;;15.20;12.75;;;20.90;99.90;;;;;;5073938;28;20040;-78
2022/05/19 08:49:44;;;;;;;14.40;11.40;;;21.00;99.90;;;;;;5068940;28;20056;-78
2022/05/19 08:52:37;;;;;;;14.52;11.73;;;21.10;99.90;;;;;;5056322;28;20382;-77
2022/05/19 08:55:03;;;;;;;13.65;10.75;;;21.10;99.90;;;;;;5073573;28;20040;-77
2022/05/19 08:57:58;;;;;;;14.15;10.25;;;21.20;99.90;;;;;;5073617;28;20056;-77
2022/05/19 09:00:37;;;;;;;19.35;11.45;;;21.20;99.90;;;;;;5073645;28;20083;-76
2022/05/19 09:03:37;;;;;;;12.38;10.07;;;21.30;99.90;;;;;;5073258;28;20123;-78
2022/05/19 09:06:34;;;;;;;12.60;10.38;;;21.40;99.90;;;;;;5073591;28;20040;-77
2022/05/19 09:09:06;;;;;;;11.35;9.43;;;21.70;99.90;;;;;;5073164;28;20047;-77
2022/05/19 09:12:15;;;;;;;11.63;8.75;;;21.70;99.90;;;;;;5073268;28;20097;-77
2022/05/19 09:14:41;;;;;;;10.15;8.90;;;21.90;99.90;;;;;;4991585;28;20527;-76
2022/05/19 09:17:09;;;;;;;11.32;8.85;;;22.00;99.90;;;;;;4991500;28;20731;-78
2022/05/19 09:19:40;;;;;;;13.35;9.10;;;22.10;99.90;;;;;;5030357;28;20056;-77
2022/05/19 09:22:14;;;;;;;11.82;9.02;;;22.10;99.90;;;;;;5055442;28;20055;-77
2022/05/19 09:24:44;;;;;;;10.07;8.27;;;22.10;99.90;;;;;;5072433;28;20420;-77
2022/05/19 09:27:09;;;;;;;;;;;22.20;99.90;;;;;;5073543;28;20071;-79
2022/05/19 09:29:51;;;;;;;10.10;8.07;;;22.20;99.90;;;;;;5055507;28;19920;-78
2022/05/19 09:32:39;;;;;;;9.55;7.22;;;22.30;99.90;;;;;;5055386;28;20101;-77
2022/05/19 09:35:08;;;;;;;8.63;7.72;;;22.30;99.90;;;;;;5071374;28;20050;-79
2022/05/19 09:37:43;;;;;;;8.93;7.95;;;22.40;99.90;;;;;;5050470;28;20106;-78
2022/05/19 09:40:12;;;;;;;10.20;8.52;;;22.60;99.90;;;;;;5051795;28;20099;-78
2022/05/19 09:43:06;;;;;;;10.95;8.95;;;23.00;99.90;;;;;;5067897;28;20048;-78
2022/05/19 09:45:38;;;;;;;10.48;8.65;;;23.20;99.90;;;;;;5072671;28;20045;-79
2022/05/19 09:48:07;;;;;;;13.77;9.30;;;23.60;99.90;;;;;;5072934;28;20105;-77
2022/05/19 09:50:46;;;;;;;8.85;7.22;;;23.80;99.90;;;;;;5055132;28;20086;-78
2022/05/19 09:53:35;;;;;;;8.85;6.43;;;24.20;99.90;;;;;;5072478;28;20353;-78
2022/05/19 09:56:06;;;;;;;9.07;4.88;;;24.60;99.90;;;;;;5059652;28;20223;-79
2022/05/19 09:58:38;;;;;;;6.72;4.60;;;25.00;99.90;;;;;;5072505;28;20374;-80
2022/05/19 10:01:08;;;;;;;5.70;4.40;;;25.50;99.90;;;;;;5072414;28;20100;-78
2022/05/19 10:04:03;;;;;;;7.20;5.20;;;25.70;99.90;;;;;;5072255;28;20419;-79
2022/05/19 10:06:46;;;;;;;6.55;5.88;;;25.70;99.90;;;;;;5068231;28;20335;-78
2022/05/19 10:09:16;;;;;;;8.10;5.95;;;25.30;99.90;;;;;;5072110;28;20049;-78
2022/05/19 10:11:55;;;;;;;7.15;5.88;;;25.10;99.90;;;;;;5072218;28;20054;-79
2022/05/19 10:14:30;;;;;;;6.28;4.75;;;25.40;99.90;;;;;;5054631;28;20354;-77
2022/05/19 10:17:26;;;;;;;6.35;4.93;;;25.90;99.90;;;;;;5072380;28;20040;-79
2022/05/19 10:20:27;;;;;;;7.15;5.18;;;26.20;99.90;;;;;;5047894;28;20123;-81
2022/05/19 10:23:19;;;;;;;8.35;5.18;;;26.20;99.90;;;;;;5012592;28;20468;-78
2022/05/19 10:25:50;;;;;;;5.63;4.68;;;25.70;99.90;;;;;;5052062;28;20048;-78
2022/05/19 10:31:40;;;;;;;6.28;3.80;;;25.50;99.90;;;;;;5044956;28;20053;-78
2022/05/19 10:34:21;;;;;;;5.47;3.10;;;25.80;99.90;;;;;;5052444;28;20365;-76
2022/05/19 10:36:53;;;;;;;9.77;3.88;;;26.00;99.90;;;;;;5035122;28;20346;-77
2022/05/19 10:39:33;;;;;;;3.78;2.90;;;26.10;99.90;;;;;;5053106;28;20438;-76
2022/05/19 10:42:25;;;;;;;4.88;3.05;;;26.30;99.90;;;;;;5035525;28;20052;-78
2022/05/19 10:45:17;;;;;;;3.40;3.10;;;26.30;99.90;;;;;;5053332;28;20099;-79
2022/05/19 10:47:46;;;;;;;5.32;3.42;;;26.40;99.90;;;;;;5053521;28;20120;-76
2022/05/19 10:50:29;;;;;;;6.13;3.92;;;26.70;99.90;;;;;;5053413;28;20049;-79
2022/05/19 10:53:07;;;;;;;5.30;3.92;;;27.10;99.90;;;;;;5035579;28;20516;-79
2022/05/19 10:56:19;;;;;;;5.38;3.75;;;27.10;99.90;;;;;;5054396;28;20170;-76
2022/05/19 10:58:58;;;;;;;6.13;3.90;;;27.30;99.90;;;;;;5039416;28;20049;-79
2022/05/19 11:01:38;;;;;;;5.63;3.38;;;27.70;99.90;;;;;;5056526;28;20045;-78
2022/05/19 11:04:29;;;;;;;5.05;4.28;;;27.70;99.20;;;;;;5056354;28;20049;-77
2022/05/19 11:07:20;;;;;;;6.30;5.45;;;27.50;98.60;;;;;;5039180;28;20350;-77
2022/05/19 11:10:10;;;;;;;7.03;4.90;;;27.00;98.60;;;;;;5056613;28;20055;-79
2022/05/19 11:12:54;;;;;;;5.95;4.70;;;26.70;97.10;;;;;;5056613;28;20091;-78
2022/05/19 11:15:57;;;;;;;6.50;3.97;;;26.30;98.90;;;;;;5056406;28;20051;-77
2022/05/19 11:18:36;;;;;;;4.70;4.20;;;26.10;99.90;;;;;;5040251;28;20064;-78
2022/05/19 11:21:16;;;;;;;4.78;3.85;;;26.10;99.90;;;;;;5056682;28;20071;-78
2022/05/19 11:23:55;;;;;;;5.70;3.45;;;26.10;99.90;;;;;;5043141;28;20146;-79
2022/05/19 11:26:35;;;;;;;5.75;3.70;;;26.20;99.90;;;;;;5075791;28;20127;-78
2022/05/19 11:29:23;;;;;;;5.43;3.00;;;26.30;99.90;;;;;;5074927;28;20055;-78
2022/05/19 11:32:15;;;;;;;4.00;3.20;;;26.20;98.80;;;;;;5058183;28;20051;-81
2022/05/19 11:35:04;;;;;;;5.35;2.88;;;26.00;98.80;;;;;;5054891;28;20450;-79
2022/05/19 11:37:50;;;;;;;4.10;2.63;;;25.60;99.30;;;;;;5037626;28;20060;-77
2022/05/19 11:40:18;;;;;;;4.57;2.17;;;25.30;98.80;;;;;;5037551;28;20525;-77
2022/05/19 11:43:14;;;;;;;4.20;2.55;;;25.00;97.40;;;;;;5055087;28;20037;-77
2022/05/19 11:45:51;;;;;;;4.00;3.00;;;24.70;99.40;;;;;;5037528;28;20362;-77
2022/05/19 11:55:12;;;;;;;4.80;3.40;;;24.30;99.90;;;;;;5054565;28;20126;-77
2022/05/19 11:57:52;;;;;;;5.60;3.88;;;24.20;99.90;;;;;;5034642;28;20071;-76
2022/05/19 12:00:26;;;;;;;4.45;3.00;;;24.20;99.90;;;;;;5017149;28;20050;-77
2022/05/19 12:03:20;;;;;;;4.30;3.45;;;24.10;99.90;;;;;;5034434;28;20045;-77
2022/05/19 12:06:01;;;;;;;5.40;3.03;;;23.90;99.90;;;;;;5034126;28;20137;-76
2022/05/19 12:08:41;;;;;;;4.50;3.60;;;23.80;99.90;;;;;;5017419;28;20506;-77
2022/05/19 12:11:22;;;;;;;4.10;2.95;;;23.70;99.90;;;;;;5017160;28;20446;-76
2022/05/19 12:14:07;;;;;;;5.00;3.42;;;23.60;99.90;;;;;;5034603;28;20116;-76
2022/05/19 12:16:59;;;;;;;4.68;3.25;;;23.50;99.90;;;;;;5034269;28;20084;-80
2022/05/19 12:19:41;;;;;;;4.38;3.67;;;23.40;99.90;;;;;;5001674;28;20152;-79
2022/05/19 12:22:17;;;;;;;6.55;3.75;;;23.30;99.90;;;;;;5034391;28;20045;-77
2022/05/19 12:25:18;;;;;;;7.72;5.80;;;23.20;99.90;;;;;;5044906;28;20455;-77
2022/05/19 12:28:01;;;;;;;5.47;4.53;;;23.10;99.90;;;;;;5052154;28;20048;-78
2022/05/19 12:33:15;;;;;;;7.78;6.97;;;22.50;99.90;;;;;;5059213;28;20399;-76
2022/05/19 12:35:47;;;;;;;10.93;6.93;;;22.00;99.90;;;;;;5073663;28;20044;-78
2022/05/19 12:38:33;;;;;;;10.85;7.95;;;21.60;99.90;;;;;;5073901;28;20044;-78
2022/05/19 12:41:05;;;;;;;9.38;7.70;;;21.20;99.90;;;;;;5073768;28;20109;-78
2022/05/19 12:43:38;;;;;;;9.95;7.75;;;20.90;99.90;;;;;;5073831;28;20062;-77
2022/05/19 12:46:25;;;;;;;9.70;8.00;;;20.60;99.90;;;;;;5073570;28;20043;-78
2022/05/19 12:49:14;;;;;;;10.32;7.13;;;20.30;99.90;;;;;;5072064;28;20080;-78
2022/05/19 12:51:59;;;;;;;9.70;7.43;;;20.10;99.90;;;;;;5073573;28;20044;-78
2022/05/19 12:54:28;;;;;;;11.02;7.43;;;19.90;99.90;;;;;;5056133;28;20125;-76
2022/05/19 12:56:58;;;;;;;10.98;6.95;;;19.80;99.90;;;;;;5073531;28;20097;-77
2022/05/19 12:59:33;;;;;;;10.25;7.70;;;19.70;99.90;;;;;;5073626;28;20045;-77
2022/05/19 13:02:05;;;;;;;8.60;6.45;;;19.60;99.90;;;;;;5055860;28;20048;-76
2022/05/19 13:04:39;;;;;;;14.60;7.00;;;19.60;99.90;;;;;;5073369;28;20044;-76
2022/05/19 13:07:17;;;;;;;10.93;7.90;;;19.50;99.90;;;;;;5055762;28;20048;-76
2022/05/19 13:10:10;;;;;;;11.45;5.43;;;19.40;99.90;;;;;;5056839;28;20119;-77
2022/05/19 13:13:08;;;;;;;5.30;2.28;;;19.30;99.90;;;;;;5048739;28;20149;-78
2022/05/19 13:15:48;;;;;;;7.07;2.65;;;19.10;99.90;;;;;;5073118;28;20087;-77
2022/05/19 13:18:15;;;;;;;5.55;2.22;;;18.90;99.90;;;;;;5072603;28;20347;-75
2022/05/19 13:20:41;;;;;;;4.75;2.33;;;18.70;99.90;;;;;;5073188;28;20052;-76
2022/05/19 13:23:23;;;;;;;6.32;2.85;;;18.50;99.90;;;;;;5073158;28;20066;-75